createdAt,value
2023-03-23T16:01:31.019Z,17.25
2023-03-23T16:05:34.406Z,17.23
2023-03-23T16:09:35.766Z,17.13
2023-03-23T16:13:37.353Z,17.07
2023-03-23T16:17:39.167Z,16.95
2023-03-23T16:21:42.138Z,16.82
2023-03-23T16:25:43.755Z,16.73
2023-03-23T16:30:02.204Z,16.58
2023-03-23T16:34:04.842Z,16.42
2023-03-23T16:38:09.215Z,16.19
2023-03-23T16:42:10.769Z,16.04
2023-03-23T16:46:12.849Z,15.87
2023-03-23T16:50:15.296Z,15.82
2023-03-23T16:54:18.067Z,15.61
2023-03-23T16:58:19.884Z,15.50
2023-03-23T17:02:21.265Z,15.26
2023-03-23T17:06:22.750Z,15.06
2023-03-23T17:10:26.421Z,14.99
2023-03-23T17:14:27.900Z,14.94
2023-03-23T17:18:29.276Z,14.91
2023-03-23T17:22:30.774Z,14.70
2023-03-23T17:26:33.507Z,14.52
2023-03-23T17:30:35.383Z,14.36
2023-03-23T17:34:36.852Z,14.32
2023-03-23T17:38:38.229Z,14.24
2023-03-23T17:42:40.977Z,13.95
2023-03-23T17:46:42.364Z,14.00
2023-03-23T17:50:46.355Z,13.83
2023-03-23T17:54:47.814Z,13.73
2023-03-23T17:58:50.598Z,13.66
2023-03-23T18:02:52.047Z,13.49
2023-03-23T18:06:55.204Z,13.52
2023-03-23T18:10:57.318Z,13.46
2023-03-23T18:15:00.061Z,13.30
2023-03-23T18:19:01.425Z,13.13
2023-03-23T18:23:02.914Z,13.09
2023-03-23T18:27:04.267Z,13.04
2023-03-23T18:31:08.490Z,13.16
2023-03-23T18:35:10.660Z,13.22
2023-03-23T18:39:12.029Z,13.14
2023-03-23T18:43:13.787Z,13.15
2023-03-23T18:47:16.527Z,13.16
2023-03-23T18:51:17.892Z,13.08
2023-03-23T18:55:20.854Z,13.10
2023-03-23T18:59:23.475Z,13.11
2023-03-23T19:03:26.299Z,13.09
2023-03-23T19:07:29.173Z,13.04
2023-03-23T19:11:31.628Z,12.97
2023-03-23T19:15:33.032Z,13.04
2023-03-23T19:19:36.360Z,12.94
2023-03-23T19:23:37.712Z,12.82
2023-03-23T19:28:01.385Z,12.76
2023-03-23T19:32:00.454Z,12.65
2023-03-23T19:36:10.205Z,12.67
2023-03-23T19:40:35.346Z,12.53
2023-03-23T19:44:35.855Z,12.54
2023-03-23T19:48:39.101Z,12.47
2023-03-23T19:52:42.617Z,12.40
2023-03-23T19:56:44.023Z,12.42
2023-03-23T20:00:45.943Z,12.45
2023-03-23T20:04:47.420Z,12.58
2023-03-23T20:08:50.129Z,12.69
2023-03-23T20:12:51.504Z,12.92
2023-03-23T20:16:53.056Z,13.01
2023-03-23T20:21:00.336Z,13.03
2023-03-23T20:25:03.286Z,13.02
2023-03-23T20:29:05.058Z,13.13
2023-03-23T20:33:06.453Z,13.18
2023-03-23T20:37:07.873Z,13.15
2023-03-23T20:41:10.606Z,13.13
2023-03-23T20:45:12.699Z,13.20
2023-03-23T20:49:14.353Z,13.08
2023-03-23T20:53:15.774Z,13.11
2023-03-23T20:57:18.935Z,13.15
2023-03-23T21:01:20.375Z,13.12
2023-03-23T21:05:21.779Z,12.99
2023-03-23T21:09:23.277Z,12.91
2023-03-23T21:13:26.131Z,12.82
2023-03-23T21:17:27.515Z,12.73
2023-03-23T21:21:29.168Z,12.64
2023-03-23T21:25:34.258Z,12.51
2023-03-23T21:29:38.097Z,12.52
2023-03-23T21:33:39.438Z,12.45
2023-03-23T21:37:41.157Z,12.45
2023-03-23T21:41:42.901Z,12.37
2023-03-23T21:45:45.987Z,12.36
2023-03-23T21:49:47.323Z,12.31
2023-03-23T21:53:48.720Z,12.30
2023-03-23T21:57:50.074Z,12.29
2023-03-23T22:01:52.799Z,12.27
2023-03-23T22:05:54.352Z,12.28
2023-03-23T22:09:55.823Z,12.28
2023-03-23T22:13:57.603Z,12.24
2023-03-23T22:18:00.312Z,12.20
2023-03-23T22:22:01.912Z,12.24
2023-03-23T22:26:03.875Z,12.20
2023-03-23T22:30:05.940Z,12.15
2023-03-23T22:34:08.915Z,12.11
2023-03-23T22:38:10.254Z,12.06
2023-03-23T22:42:12.424Z,11.95
2023-03-23T22:46:17.073Z,11.95
2023-03-23T22:50:19.963Z,11.89
2023-03-23T22:54:21.358Z,11.87
2023-03-23T22:58:23.150Z,11.87
2023-03-23T23:02:24.558Z,11.75
2023-03-23T23:06:27.320Z,11.71
2023-03-23T23:10:28.704Z,11.82
2023-03-23T23:14:30.046Z,11.75
2023-03-23T23:18:31.384Z,11.77
2023-03-23T23:22:34.106Z,11.76
2023-03-23T23:26:35.440Z,11.75
2023-03-23T23:30:36.991Z,11.76
2023-03-23T23:34:38.334Z,11.68
2023-03-23T23:38:41.046Z,11.69
2023-03-23T23:42:42.884Z,11.63
2023-03-23T23:46:44.263Z,11.68
2023-03-23T23:50:45.796Z,11.62
2023-03-23T23:54:48.803Z,11.63
2023-03-23T23:58:50.479Z,11.61
